Terminal Aerodrome Forecast
Issued by NWS

Home | Current Version | Previous Version | Text Only | Print | Product List | Glossary On
Versions: 1 2 3 4 5 6 7 8 9 10 11 12 13 14 15 16 17 18
000
FTUS43 KGRB 192323
TAFRHI
TAF
KRHI 192323Z 2000/2024 20006KT P6SM SKC
     FM200300 20006KT P6SM SKC WS013/22040KT
     FM201000 20006KT P6SM SKC
     FM201500 19010G17KT P6SM BKN250
     FM202300 17008KT P6SM BKN250=

USA.gov is the U.S. government's official web portal to all federal, state and local government web resources and services.